sensor_id;sensor_type;location;lat;lon;timestamp;pressure;altitude;pressure_sealevel;temperature;humidity
59877;BME280;45749;51.140;17.184;2023-05-22T00:00:09;100330.53;;;16.87;67.97
59877;BME280;45749;51.140;17.184;2023-05-22T00:02:34;100333.19;;;16.87;67.85
59877;BME280;45749;51.140;17.184;2023-05-22T00:05:10;100328.50;;;16.81;68.11
59877;BME280;45749;51.140;17.184;2023-05-22T00:07:37;100333.81;;;16.81;68.14
59877;BME280;45749;51.140;17.184;2023-05-22T00:10:03;100329.31;;;16.82;68.41
59877;BME280;45749;51.140;17.184;2023-05-22T00:12:29;100322.78;;;16.76;68.30
59877;BME280;45749;51.140;17.184;2023-05-22T00:14:54;100329.38;;;16.72;68.10
59877;BME280;45749;51.140;17.184;2023-05-22T00:17:20;100318.16;;;16.69;68.47
59877;BME280;45749;51.140;17.184;2023-05-22T00:19:45;100328.44;;;16.63;68.45
59877;BME280;45749;51.140;17.184;2023-05-22T00:22:10;100327.91;;;16.60;68.90
59877;BME280;45749;51.140;17.184;2023-05-22T00:24:35;100329.19;;;16.56;68.89
59877;BME280;45749;51.140;17.184;2023-05-22T00:27:01;100329.63;;;16.51;69.19
59877;BME280;45749;51.140;17.184;2023-05-22T00:29:26;100324.75;;;16.47;69.02
59877;BME280;45749;51.140;17.184;2023-05-22T00:31:51;100321.38;;;16.45;69.40
59877;BME280;45749;51.140;17.184;2023-05-22T00:34:17;100321.38;;;16.45;68.97
59877;BME280;45749;51.140;17.184;2023-05-22T00:36:42;100312.31;;;16.37;69.41
59877;BME280;45749;51.140;17.184;2023-05-22T00:39:08;100325.50;;;16.39;69.06
59877;BME280;45749;51.140;17.184;2023-05-22T00:41:33;100313.16;;;16.38;69.18
59877;BME280;45749;51.140;17.184;2023-05-22T00:43:59;100310.78;;;16.35;69.19
59877;BME280;45749;51.140;17.184;2023-05-22T00:46:25;100317.94;;;16.34;69.21
59877;BME280;45749;51.140;17.184;2023-05-22T00:48:50;100314.75;;;16.31;69.58
59877;BME280;45749;51.140;17.184;2023-05-22T00:51:18;100310.56;;;16.28;69.21
59877;BME280;45749;51.140;17.184;2023-05-22T00:53:44;100313.81;;;16.22;69.51
59877;BME280;45749;51.140;17.184;2023-05-22T00:56:11;100312.69;;;16.25;69.32
59877;BME280;45749;51.140;17.184;2023-05-22T00:58:37;100313.81;;;16.22;69.45
59877;BME280;45749;51.140;17.184;2023-05-22T01:01:03;100308.94;;;16.17;69.47
59877;BME280;45749;51.140;17.184;2023-05-22T01:03:31;100310.34;;;16.12;69.67
59877;BME280;45749;51.140;17.184;2023-05-22T01:05:57;100307.97;;;16.09;69.88
59877;BME280;45749;51.140;17.184;2023-05-22T01:08:23;100317.78;;;16.08;70.12
59877;BME280;45749;51.140;17.184;2023-05-22T01:10:57;100318.97;;;16.06;70.20
59877;BME280;45749;51.140;17.184;2023-05-22T01:18:55;100326.13;;;15.95;70.09
59877;BME280;45749;51.140;17.184;2023-05-22T01:21:33;100322.78;;;15.93;70.24
59877;BME280;45749;51.140;17.184;2023-05-22T01:27:07;100312.91;;;15.76;70.65
59877;BME280;45749;51.140;17.184;2023-05-22T01:32:30;100323.41;;;15.68;70.86
59877;BME280;45749;51.140;17.184;2023-05-22T01:35:00;100325.94;;;15.60;71.04
59877;BME280;45749;51.140;17.184;2023-05-22T01:37:26;100330.28;;;15.51;71.20
59877;BME280;45749;51.140;17.184;2023-05-22T01:39:52;100323.72;;;15.45;71.22
59877;BME280;45749;51.140;17.184;2023-05-22T01:42:19;100327.91;;;15.38;71.68
59877;BME280;45749;51.140;17.184;2023-05-22T01:44:44;100320.94;;;15.28;71.47
59877;BME280;45749;51.140;17.184;2023-05-22T01:47:10;100331.72;;;15.26;71.75
59877;BME280;45749;51.140;17.184;2023-05-22T01:49:35;100328.66;;;15.21;71.58
59877;BME280;45749;51.140;17.184;2023-05-22T01:52:23;100331.88;;;15.15;71.87
59877;BME280;45749;51.140;17.184;2023-05-22T01:54:54;100323.47;;;15.10;72.12
59877;BME280;45749;51.140;17.184;2023-05-22T01:57:29;100329.06;;;15.07;72.17
59877;BME280;45749;51.140;17.184;2023-05-22T02:00:03;100320.53;;;15.03;72.26
59877;BME280;45749;51.140;17.184;2023-05-22T02:02:35;100320.97;;;14.98;72.37
59877;BME280;45749;51.140;17.184;2023-05-22T02:05:03;100318.72;;;14.94;72.30
59877;BME280;45749;51.140;17.184;2023-05-22T02:07:31;100307.53;;;14.90;72.46
59877;BME280;45749;51.140;17.184;2023-05-22T02:09:58;100319.41;;;14.86;72.70
59877;BME280;45749;51.140;17.184;2023-05-22T02:12:24;100313.41;;;14.84;72.78
59877;BME280;45749;51.140;17.184;2023-05-22T02:14:50;100306.13;;;14.76;72.74
59877;BME280;45749;51.140;17.184;2023-05-22T02:17:15;100319.69;;;14.83;72.68
59877;BME280;45749;51.140;17.184;2023-05-22T02:19:43;100311.72;;;14.83;72.87
59877;BME280;45749;51.140;17.184;2023-05-22T02:22:08;100311.88;;;14.82;72.62
59877;BME280;45749;51.140;17.184;2023-05-22T02:24:38;100310.47;;;14.77;72.97
59877;BME280;45749;51.140;17.184;2023-05-22T02:27:05;100317.59;;;14.77;72.64
59877;BME280;45749;51.140;17.184;2023-05-22T02:29:31;100309.88;;;14.74;72.77
59877;BME280;45749;51.140;17.184;2023-05-22T02:31:56;100306.81;;;14.69;72.96
59877;BME280;45749;51.140;17.184;2023-05-22T02:34:21;100303.59;;;14.65;72.74
59877;BME280;45749;51.140;17.184;2023-05-22T02:36:47;100303.03;;;14.62;73.06
59877;BME280;45749;51.140;17.184;2023-05-22T02:39:16;100299.38;;;14.53;72.96
59877;BME280;45749;51.140;17.184;2023-05-22T02:41:41;100307.50;;;14.51;73.10
59877;BME280;45749;51.140;17.184;2023-05-22T02:44:06;100303.53;;;14.46;73.21
59877;BME280;45749;51.140;17.184;2023-05-22T02:46:32;100300.72;;;14.38;73.27
59877;BME280;45749;51.140;17.184;2023-05-22T02:48:57;100307.16;;;14.35;73.26
59877;BME280;45749;51.140;17.184;2023-05-22T02:51:22;100310.09;;;14.32;73.39
59877;BME280;45749;51.140;17.184;2023-05-22T02:53:47;100304.31;;;14.27;73.41
59877;BME280;45749;51.140;17.184;2023-05-22T02:56:13;100311.59;;;14.25;73.69
59877;BME280;45749;51.140;17.184;2023-05-22T02:58:38;100306.69;;;14.20;73.78
59877;BME280;45749;51.140;17.184;2023-05-22T03:01:04;100313.25;;;14.16;73.79
59877;BME280;45749;51.140;17.184;2023-05-22T03:03:33;100305.81;;;14.10;73.62
59877;BME280;45749;51.140;17.184;2023-05-22T03:05:59;100299.22;;;14.04;74.12
59877;BME280;45749;51.140;17.184;2023-05-22T03:08:29;100306.63;;;14.01;74.18
59877;BME280;45749;51.140;17.184;2023-05-22T03:10:56;100302.41;;;13.98;74.12
59877;BME280;45749;51.140;17.184;2023-05-22T03:13:22;100309.53;;;13.98;74.39
59877;BME280;45749;51.140;17.184;2023-05-22T03:15:47;100305.22;;;13.97;74.44
59877;BME280;45749;51.140;17.184;2023-05-22T03:18:13;100302.00;;;13.93;74.48
59877;BME280;45749;51.140;17.184;2023-05-22T03:20:38;100294.44;;;13.89;74.58
59877;BME280;45749;51.140;17.184;2023-05-22T03:23:04;100294.44;;;13.89;74.63
59877;BME280;45749;51.140;17.184;2023-05-22T03:25:29;100295.53;;;13.86;74.86
59877;BME280;45749;51.140;17.184;2023-05-22T03:27:55;100295.91;;;13.81;74.83
59877;BME280;45749;51.140;17.184;2023-05-22T03:30:20;100297.06;;;13.79;74.84
59877;BME280;45749;51.140;17.184;2023-05-22T03:32:45;100299.97;;;13.76;74.82
59877;BME280;45749;51.140;17.184;2023-05-22T03:35:10;100301.75;;;13.75;75.16
59877;BME280;45749;51.140;17.184;2023-05-22T03:37:39;100295.75;;;13.73;75.37
59877;BME280;45749;51.140;17.184;2023-05-22T03:40:05;100297.13;;;13.68;75.23
59877;BME280;45749;51.140;17.184;2023-05-22T03:42:31;100301.72;;;13.66;75.60
59877;BME280;45749;51.140;17.184;2023-05-22T03:44:56;100307.88;;;13.66;75.45
59877;BME280;45749;51.140;17.184;2023-05-22T03:47:21;100303.53;;;13.65;75.35
59877;BME280;45749;51.140;17.184;2023-05-22T03:49:46;100296.44;;;13.66;75.68
59877;BME280;45749;51.140;17.184;2023-05-22T03:52:12;100299.91;;;13.66;75.89
59877;BME280;45749;51.140;17.184;2023-05-22T03:54:37;100303.13;;;13.70;75.35
59877;BME280;45749;51.140;17.184;2023-05-22T03:57:03;100303.25;;;13.68;75.85
59877;BME280;45749;51.140;17.184;2023-05-22T03:59:28;100303.13;;;13.70;75.94
59877;BME280;45749;51.140;17.184;2023-05-22T04:01:53;100297.84;;;13.70;75.93
59877;BME280;45749;51.140;17.184;2023-05-22T04:04:24;100291.81;;;13.68;76.24
59877;BME280;45749;51.140;17.184;2023-05-22T04:06:51;100286.09;;;13.63;76.08
59877;BME280;45749;51.140;17.184;2023-05-22T04:09:19;100292.78;;;13.67;76.49
59877;BME280;45749;51.140;17.184;2023-05-22T04:22:43;100290.66;;;14.31;75.60
59877;BME280;45749;51.140;17.184;2023-05-22T04:25:10;100290.78;;;14.30;75.75
59877;BME280;45749;51.140;17.184;2023-05-22T04:27:35;100294.53;;;14.27;75.77
59877;BME280;45749;51.140;17.184;2023-05-22T04:30:02;100295.81;;;14.23;75.73
59877;BME280;45749;51.140;17.184;2023-05-22T04:32:27;100288.00;;;14.22;75.90
59877;BME280;45749;51.140;17.184;2023-05-22T04:34:53;100290.06;;;14.18;75.99
59877;BME280;45749;51.140;17.184;2023-05-22T04:37:19;100289.34;;;14.16;76.19
59877;BME280;45749;51.140;17.184;2023-05-22T04:39:45;100289.22;;;14.18;75.97
59877;BME280;45749;51.140;17.184;2023-05-22T04:42:14;100289.94;;;14.20;76.12
59877;BME280;45749;51.140;17.184;2023-05-22T04:44:40;100277.91;;;14.16;76.10
59877;BME280;45749;51.140;17.184;2023-05-22T04:47:06;100284.78;;;14.18;76.31
59877;BME280;45749;51.140;17.184;2023-05-22T04:49:36;100282.81;;;14.20;76.08
59877;BME280;45749;51.140;17.184;2023-05-22T04:52:01;100287.28;;;14.20;76.34
59877;BME280;45749;51.140;17.184;2023-05-22T04:54:28;100287.28;;;14.20;76.12
59877;BME280;45749;51.140;17.184;2023-05-22T04:56:54;100284.47;;;14.21;76.51
59877;BME280;45749;51.140;17.184;2023-05-22T04:59:19;100290.38;;;14.25;76.28
59877;BME280;45749;51.140;17.184;2023-05-22T05:01:48;100289.25;;;14.27;75.85
59877;BME280;45749;51.140;17.184;2023-05-22T05:04:15;100291.78;;;14.29;76.15
59877;BME280;45749;51.140;17.184;2023-05-22T05:06:40;100294.28;;;14.30;76.38
59877;BME280;45749;51.140;17.184;2023-05-22T05:09:07;100294.72;;;14.36;76.19
59877;BME280;45749;51.140;17.184;2023-05-22T05:11:33;100294.44;;;14.39;76.12
59877;BME280;45749;51.140;17.184;2023-05-22T05:13:58;100296.13;;;14.40;75.89
59877;BME280;45749;51.140;17.184;2023-05-22T05:16:24;100301.31;;;14.41;76.09
59877;BME280;45749;51.140;17.184;2023-05-22T05:18:50;100303.81;;;14.43;75.73
59877;BME280;45749;51.140;17.184;2023-05-22T05:21:16;100301.00;;;14.44;75.91
59877;BME280;45749;51.140;17.184;2023-05-22T05:23:41;100302.44;;;14.48;75.56
59877;BME280;45749;51.140;17.184;2023-05-22T05:26:06;100301.31;;;14.51;76.43
59877;BME280;45749;51.140;17.184;2023-05-22T05:28:32;100298.41;;;14.54;76.57
59877;BME280;45749;51.140;17.184;2023-05-22T05:30:57;100303.59;;;14.56;76.12
59877;BME280;45749;51.140;17.184;2023-05-22T05:33:22;100298.00;;;14.59;76.06
59877;BME280;45749;51.140;17.184;2023-05-22T05:35:48;100299.41;;;14.63;75.91
59877;BME280;45749;51.140;17.184;2023-05-22T05:38:14;100294.66;;;14.66;76.35
59877;BME280;45749;51.140;17.184;2023-05-22T05:40:41;100291.44;;;14.72;76.05
59877;BME280;45749;51.140;17.184;2023-05-22T05:43:07;100292.28;;;14.73;75.94
59877;BME280;45749;51.140;17.184;2023-05-22T05:45:33;100297.47;;;14.84;76.47
59877;BME280;45749;51.140;17.184;2023-05-22T05:47:58;100293.56;;;14.88;75.82
59877;BME280;45749;51.140;17.184;2023-05-22T05:50:23;100289.50;;;14.94;75.64
59877;BME280;45749;51.140;17.184;2023-05-22T05:52:49;100291.72;;;14.98;76.25
59877;BME280;45749;51.140;17.184;2023-05-22T05:55:14;100293.84;;;15.05;75.61
59877;BME280;45749;51.140;17.184;2023-05-22T05:57:39;100296.75;;;15.11;75.77
59877;BME280;45749;51.140;17.184;2023-05-22T06:00:05;100292.84;;;15.15;75.76
59877;BME280;45749;51.140;17.184;2023-05-22T06:02:33;100293.94;;;15.22;75.42
59877;BME280;45749;51.140;17.184;2023-05-22T06:04:59;100298.56;;;15.30;75.47
59877;BME280;45749;51.140;17.184;2023-05-22T06:07:24;100288.47;;;15.34;75.28
59877;BME280;45749;51.140;17.184;2023-05-22T06:09:49;100286.75;;;15.42;74.28
59877;BME280;45749;51.140;17.184;2023-05-22T06:12:15;100290.69;;;15.48;74.55
59877;BME280;45749;51.140;17.184;2023-05-22T06:14:40;100279.47;;;15.54;74.87
59877;BME280;45749;51.140;17.184;2023-05-22T06:17:06;100283.38;;;15.60;74.51
59877;BME280;45749;51.140;17.184;2023-05-22T06:19:33;100278.19;;;15.68;75.00
59877;BME280;45749;51.140;17.184;2023-05-22T06:21:58;100282.09;;;15.74;74.86
59877;BME280;45749;51.140;17.184;2023-05-22T06:24:24;100282.19;;;15.82;74.63
59877;BME280;45749;51.140;17.184;2023-05-22T06:26:49;100281.63;;;15.88;74.14
59877;BME280;45749;51.140;17.184;2023-05-22T06:29:14;100276.53;;;15.94;74.27
59877;BME280;45749;51.140;17.184;2023-05-22T06:31:40;100285.47;;;16.03;74.33
59877;BME280;45749;51.140;17.184;2023-05-22T06:34:05;100288.38;;;16.10;74.43
59877;BME280;45749;51.140;17.184;2023-05-22T06:36:30;100277.44;;;16.13;73.83
59877;BME280;45749;51.140;17.184;2023-05-22T06:38:58;100284.53;;;16.22;73.82
59877;BME280;45749;51.140;17.184;2023-05-22T06:41:23;100288.28;;;16.29;73.78
59877;BME280;45749;51.140;17.184;2023-05-22T06:43:50;100286.69;;;16.36;73.78
59877;BME280;45749;51.140;17.184;2023-05-22T06:46:15;100284.41;;;16.41;73.47
59877;BME280;45749;51.140;17.184;2023-05-22T06:48:40;100283.81;;;16.48;71.90
59877;BME280;45749;51.140;17.184;2023-05-22T06:51:06;100289.38;;;16.54;72.54
59877;BME280;45749;51.140;17.184;2023-05-22T06:53:32;100289.59;;;16.61;72.99
59877;BME280;45749;51.140;17.184;2023-05-22T06:55:57;100291.38;;;16.70;72.40
59877;BME280;45749;51.140;17.184;2023-05-22T06:58:22;100296.13;;;16.76;72.39
59877;BME280;45749;51.140;17.184;2023-05-22T07:00:48;100303.50;;;16.82;72.08
59877;BME280;45749;51.140;17.184;2023-05-22T07:03:13;100300.91;;;16.91;72.00
59877;BME280;45749;51.140;17.184;2023-05-22T07:05:38;100292.47;;;16.95;71.88
59877;BME280;45749;51.140;17.184;2023-05-22T12:49:52;100104.47;;;25.95;39.37
59877;BME280;45749;51.140;17.184;2023-05-22T12:52:18;100108.66;;;25.91;38.42
59877;BME280;45749;51.140;17.184;2023-05-22T12:54:43;100108.91;;;25.90;39.89
59877;BME280;45749;51.140;17.184;2023-05-22T12:57:08;100112.22;;;25.85;39.05
59877;BME280;45749;51.140;17.184;2023-05-22T12:59:34;100105.19;;;25.84;39.69
59877;BME280;45749;51.140;17.184;2023-05-22T13:02:01;100105.56;;;25.88;39.63
59877;BME280;45749;51.140;17.184;2023-05-22T13:04:28;100108.03;;;25.89;38.93
59877;BME280;45749;51.140;17.184;2023-05-22T13:06:53;100095.97;;;25.92;38.28
59877;BME280;45749;51.140;17.184;2023-05-22T13:09:18;100101.38;;;25.92;38.93
59877;BME280;45749;51.140;17.184;2023-05-22T13:11:45;100105.97;;;25.91;38.75
59877;BME280;45749;51.140;17.184;2023-05-22T13:14:10;100102.63;;;25.89;38.16
59877;BME280;45749;51.140;17.184;2023-05-22T13:16:35;100095.16;;;25.91;37.97
59877;BME280;45749;51.140;17.184;2023-05-22T13:19:01;100099.31;;;25.94;38.63
59877;BME280;45749;51.140;17.184;2023-05-22T13:21:26;100098.03;;;25.96;37.07
59877;BME280;45749;51.140;17.184;2023-05-22T13:23:51;100091.19;;;25.94;37.12
59877;BME280;45749;51.140;17.184;2023-05-22T13:26:17;100082.47;;;25.92;37.17
59877;BME280;45749;51.140;17.184;2023-05-22T13:28:42;100080.81;;;25.91;37.49
59877;BME280;45749;51.140;17.184;2023-05-22T13:31:07;100076.03;;;25.93;37.15
59877;BME280;45749;51.140;17.184;2023-05-22T13:33:33;100085.13;;;25.99;37.23
59877;BME280;45749;51.140;17.184;2023-05-22T13:35:58;100083.25;;;25.99;37.30
59877;BME280;45749;51.140;17.184;2023-05-22T13:38:23;100073.28;;;26.00;37.46
59877;BME280;45749;51.140;17.184;2023-05-22T13:40:48;100081.97;;;26.02;37.89
59877;BME280;45749;51.140;17.184;2023-05-22T13:43:14;100083.63;;;26.03;37.22
59877;BME280;45749;51.140;17.184;2023-05-22T13:45:39;100075.31;;;26.04;37.03
59877;BME280;45749;51.140;17.184;2023-05-22T13:48:04;100067.84;;;26.06;36.64
59877;BME280;45749;51.140;17.184;2023-05-22T13:50:30;100064.66;;;26.09;37.46
59877;BME280;45749;51.140;17.184;2023-05-22T13:52:55;100067.97;;;26.11;37.24
59877;BME280;45749;51.140;17.184;2023-05-22T13:55:20;100059.88;;;26.11;36.62
59877;BME280;45749;51.140;17.184;2023-05-22T13:57:46;100065.91;;;26.13;36.81
59877;BME280;45749;51.140;17.184;2023-05-22T14:00:12;100068.16;;;26.16;37.17
59877;BME280;45749;51.140;17.184;2023-05-22T14:02:38;100058.75;;;26.19;36.65
59877;BME280;45749;51.140;17.184;2023-05-22T14:05:03;100060.88;;;26.17;36.49
59877;BME280;45749;51.140;17.184;2023-05-22T14:07:29;100055.47;;;26.17;36.18
59877;BME280;45749;51.140;17.184;2023-05-22T14:09:54;100055.09;;;26.13;35.75
59877;BME280;45749;51.140;17.184;2023-05-22T14:12:19;100046.78;;;26.08;35.79
59877;BME280;45749;51.140;17.184;2023-05-22T14:14:45;100049.50;;;26.08;36.56
59877;BME280;45749;51.140;17.184;2023-05-22T14:17:10;100041.78;;;26.12;36.35
59877;BME280;45749;51.140;17.184;2023-05-22T14:19:37;100034.47;;;26.12;36.06
59877;BME280;45749;51.140;17.184;2023-05-22T14:22:03;100045.47;;;26.17;37.02
59877;BME280;45749;51.140;17.184;2023-05-22T14:24:28;100043.59;;;26.18;35.34
59877;BME280;45749;51.140;17.184;2023-05-22T14:26:54;100040.06;;;26.17;36.44
59877;BME280;45749;51.140;17.184;2023-05-22T14:29:23;100040.06;;;26.17;36.10
59877;BME280;45749;51.140;17.184;2023-05-22T14:31:48;100045.47;;;26.17;35.63
59877;BME280;45749;51.140;17.184;2023-05-22T14:34:14;100039.44;;;26.15;35.99
59877;BME280;45749;51.140;17.184;2023-05-22T14:36:40;100031.56;;;26.14;35.98
59877;BME280;45749;51.140;17.184;2023-05-22T14:39:08;100033.03;;;26.16;36.08
59877;BME280;45749;51.140;17.184;2023-05-22T14:41:34;100037.13;;;26.19;35.99
59877;BME280;45749;51.140;17.184;2023-05-22T14:43:59;100036.16;;;26.13;35.19
59877;BME280;45749;51.140;17.184;2023-05-22T14:46:25;100038.88;;;26.13;36.08
59877;BME280;45749;51.140;17.184;2023-05-22T14:48:50;100029.94;;;26.13;36.11
59877;BME280;45749;51.140;17.184;2023-05-22T14:51:20;100030.06;;;26.18;35.88
59877;BME280;45749;51.140;17.184;2023-05-22T14:53:45;100027.16;;;26.19;35.46
59877;BME280;45749;51.140;17.184;2023-05-22T14:56:11;100027.16;;;26.19;35.43
59877;BME280;45749;51.140;17.184;2023-05-22T14:58:36;100027.81;;;26.15;34.83
59877;BME280;45749;51.140;17.184;2023-05-22T15:01:01;100018.69;;;26.09;35.45
59877;BME280;45749;51.140;17.184;2023-05-22T15:03:27;100029.31;;;26.11;35.23
59877;BME280;45749;51.140;17.184;2023-05-22T15:05:52;100021.63;;;26.08;35.30
59877;BME280;45749;51.140;17.184;2023-05-22T15:08:18;100019.16;;;26.06;35.25
59877;BME280;45749;51.140;17.184;2023-05-22T15:10:44;100013.97;;;26.05;35.87
59877;BME280;45749;51.140;17.184;2023-05-22T15:13:11;100010.44;;;26.04;35.53
59877;BME280;45749;51.140;17.184;2023-05-22T15:15:38;100011.25;;;26.05;35.26
59877;BME280;45749;51.140;17.184;2023-05-22T15:18:03;100012.09;;;26.05;35.43
59877;BME280;45749;51.140;17.184;2023-05-22T15:20:29;100008.16;;;26.01;34.56
59877;BME280;45749;51.140;17.184;2023-05-22T15:22:56;100002.38;;;25.98;34.96
59877;BME280;45749;51.140;17.184;2023-05-22T15:25:21;100003.63;;;25.95;35.17
59877;BME280;45749;51.140;17.184;2023-05-22T15:27:46;99994.94;;;25.93;34.99
59877;BME280;45749;51.140;17.184;2023-05-22T15:30:12;99989.75;;;25.91;35.42
59877;BME280;45749;51.140;17.184;2023-05-22T15:32:38;99991.44;;;25.86;34.92
59877;BME280;45749;51.140;17.184;2023-05-22T15:35:05;99977.13;;;25.79;35.11
59877;BME280;45749;51.140;17.184;2023-05-22T15:37:31;99989.16;;;25.83;34.62
59877;BME280;45749;51.140;17.184;2023-05-22T15:39:58;99979.22;;;25.77;35.79
59877;BME280;45749;51.140;17.184;2023-05-22T15:42:24;99979.81;;;25.79;35.36
59877;BME280;45749;51.140;17.184;2023-05-22T15:44:49;99980.88;;;25.78;35.59
59877;BME280;45749;51.140;17.184;2023-05-22T15:47:17;99970.06;;;25.78;35.45
59877;BME280;45749;51.140;17.184;2023-05-22T15:49:43;99965.16;;;25.68;34.48
59877;BME280;45749;51.140;17.184;2023-05-22T15:52:08;99975.78;;;25.63;34.86
59877;BME280;45749;51.140;17.184;2023-05-22T15:54:33;99972.91;;;25.58;35.11
59877;BME280;45749;51.140;17.184;2023-05-22T15:56:58;99973.13;;;25.56;35.32
59877;BME280;45749;51.140;17.184;2023-05-22T15:59:24;99970.66;;;25.55;35.81
59877;BME280;45749;51.140;17.184;2023-05-22T16:01:49;99955.53;;;25.47;35.83
59877;BME280;45749;51.140;17.184;2023-05-22T16:04:15;99961.16;;;25.45;36.05
59877;BME280;45749;51.140;17.184;2023-05-22T16:06:40;99961.19;;;25.39;35.96
59877;BME280;45749;51.140;17.184;2023-05-22T16:09:05;99963.25;;;25.37;35.87
59877;BME280;45749;51.140;17.184;2023-05-22T16:11:31;99952.28;;;25.32;36.46
59877;BME280;45749;51.140;17.184;2023-05-22T16:13:57;99959.78;;;25.30;35.91
59877;BME280;45749;51.140;17.184;2023-05-22T16:16:22;99953.59;;;25.22;36.01
59877;BME280;45749;51.140;17.184;2023-05-22T16:18:47;99952.97;;;25.20;36.87
59877;BME280;45749;51.140;17.184;2023-05-22T16:21:13;99955.50;;;25.15;36.85
59877;BME280;45749;51.140;17.184;2023-05-22T16:23:38;99954.25;;;25.11;36.99
59877;BME280;45749;51.140;17.184;2023-05-22T16:26:04;99950.09;;;25.09;37.09
59877;BME280;45749;51.140;17.184;2023-05-22T16:28:29;99947.22;;;25.03;37.36
59877;BME280;45749;51.140;17.184;2023-05-22T16:30:54;99952.22;;;25.00;37.06
59877;BME280;45749;51.140;17.184;2023-05-22T16:33:19;99959.09;;;24.96;37.66
59877;BME280;45749;51.140;17.184;2023-05-22T16:35:45;99963.47;;;24.90;38.00
59877;BME280;45749;51.140;17.184;2023-05-22T16:38:13;99956.44;;;24.83;37.89
59877;BME280;45749;51.140;17.184;2023-05-22T16:40:39;99961.03;;;24.75;37.87
59877;BME280;45749;51.140;17.184;2023-05-22T16:43:05;99963.97;;;24.67;38.15
59877;BME280;45749;51.140;17.184;2023-05-22T16:45:33;99968.13;;;24.63;38.41
59877;BME280;45749;51.140;17.184;2023-05-22T16:47:59;99957.75;;;24.60;38.71
59877;BME280;45749;51.140;17.184;2023-05-22T16:50:24;99958.81;;;24.52;39.16
59877;BME280;45749;51.140;17.184;2023-05-22T16:52:49;99961.72;;;24.51;39.54
59877;BME280;45749;51.140;17.184;2023-05-22T16:55:14;99972.31;;;24.46;39.75
59877;BME280;45749;51.140;17.184;2023-05-22T16:57:40;99960.06;;;24.37;39.98
59877;BME280;45749;51.140;17.184;2023-05-22T17:00:07;99971.25;;;24.33;40.06
59877;BME280;45749;51.140;17.184;2023-05-22T17:02:34;99962.78;;;24.30;40.30
59877;BME280;45749;51.140;17.184;2023-05-22T17:05:00;99969.63;;;24.26;39.91
59877;BME280;45749;51.140;17.184;2023-05-22T17:07:25;99962.38;;;24.20;40.25
59877;BME280;45749;51.140;17.184;2023-05-22T17:09:50;99966.13;;;24.12;40.29
59877;BME280;45749;51.140;17.184;2023-05-22T17:12:19;99971.28;;;24.07;40.42
59877;BME280;45749;51.140;17.184;2023-05-22T17:14:44;99967.78;;;24.00;40.54
59877;BME280;45749;51.140;17.184;2023-05-22T17:17:09;99967.78;;;23.93;40.43
59877;BME280;45749;51.140;17.184;2023-05-22T17:19:35;99972.94;;;23.88;40.68
59877;BME280;45749;51.140;17.184;2023-05-22T17:22:01;99972.13;;;23.81;40.67
59877;BME280;45749;51.140;17.184;2023-05-22T17:24:26;99982.88;;;23.74;40.88
59877;BME280;45749;51.140;17.184;2023-05-22T17:26:52;99975.63;;;23.68;41.15
59877;BME280;45749;51.140;17.184;2023-05-22T17:29:17;99974.53;;;23.62;41.18
59877;BME280;45749;51.140;17.184;2023-05-22T17:31:42;99979.50;;;23.59;41.38
59877;BME280;45749;51.140;17.184;2023-05-22T17:34:08;99967.06;;;23.51;42.01
59877;BME280;45749;51.140;17.184;2023-05-22T17:36:33;99967.69;;;23.47;41.61
59877;BME280;45749;51.140;17.184;2023-05-22T17:38:58;99968.28;;;23.42;42.34
59877;BME280;45749;51.140;17.184;2023-05-22T17:41:24;99961.03;;;23.36;42.21
59877;BME280;45749;51.140;17.184;2023-05-22T17:43:50;99968.69;;;23.32;42.37
59877;BME280;45749;51.140;17.184;2023-05-22T17:46:15;99967.44;;;23.28;42.67
59877;BME280;45749;51.140;17.184;2023-05-22T17:48:41;99962.66;;;23.24;42.40
59877;BME280;45749;51.140;17.184;2023-05-22T17:51:06;99960.97;;;23.16;42.55
59877;BME280;45749;51.140;17.184;2023-05-22T17:53:31;99965.94;;;23.12;42.80
59877;BME280;45749;51.140;17.184;2023-05-22T17:55:58;99962.22;;;23.07;43.04
59877;BME280;45749;51.140;17.184;2023-05-22T17:58:24;99962.78;;;23.02;43.04
59877;BME280;45749;51.140;17.184;2023-05-22T18:00:49;99969.63;;;22.98;43.29
59877;BME280;45749;51.140;17.184;2023-05-22T18:03:16;99965.81;;;22.92;43.36
59877;BME280;45749;51.140;17.184;2023-05-22T18:05:44;99960.63;;;22.84;43.51
59877;BME280;45749;51.140;17.184;2023-05-22T18:08:09;99964.53;;;22.82;43.88
59877;BME280;45749;51.140;17.184;2023-05-22T18:10:35;99963.91;;;22.80;43.72
59877;BME280;45749;51.140;17.184;2023-05-22T18:13:00;99963.69;;;22.75;43.79
59877;BME280;45749;51.140;17.184;2023-05-22T18:15:25;99950.59;;;22.65;44.20
59877;BME280;45749;51.140;17.184;2023-05-22T18:17:50;99957.84;;;22.64;44.28
59877;BME280;45749;51.140;17.184;2023-05-22T18:20:16;99954.91;;;22.59;44.51
59877;BME280;45749;51.140;17.184;2023-05-22T18:22:41;99950.97;;;22.55;44.67
59877;BME280;45749;51.140;17.184;2023-05-22T18:25:08;99954.44;;;22.49;44.94
59877;BME280;45749;51.140;17.184;2023-05-22T18:27:34;99951.72;;;22.42;44.83
59877;BME280;45749;51.140;17.184;2023-05-22T18:29:59;99948.97;;;22.36;44.94
59877;BME280;45749;51.140;17.184;2023-05-22T18:32:25;99948.72;;;22.31;45.10
59877;BME280;45749;51.140;17.184;2023-05-22T18:34:50;99944.34;;;22.23;45.38
59877;BME280;45749;51.140;17.184;2023-05-22T18:37:17;99952.19;;;22.18;45.34
59877;BME280;45749;51.140;17.184;2023-05-22T18:39:45;99958.09;;;22.13;45.70